createdAt,value
2022-12-12T00:01:26.272Z,11.00
2022-12-12T00:03:54.542Z,10.70
2022-12-12T00:06:23.897Z,10.33
2022-12-12T00:08:52.363Z,12.90
2022-12-12T00:11:20.548Z,13.23
2022-12-12T00:13:48.878Z,10.40
2022-12-12T00:16:18.033Z,14.40
2022-12-12T00:18:47.085Z,12.43
2022-12-12T00:21:16.928Z,11.93
2022-12-12T00:23:45.430Z,10.20
2022-12-12T00:26:19.995Z,12.63
2022-12-12T00:28:48.267Z,10.53
2022-12-12T00:31:16.858Z,12.77
2022-12-12T00:33:49.038Z,16.93
2022-12-12T00:36:17.694Z,14.10
2022-12-12T00:38:45.545Z,13.00
2022-12-12T00:41:13.282Z,13.53
2022-12-12T00:43:41.758Z,13.97
2022-12-12T00:46:09.901Z,11.37
2022-12-12T00:48:38.176Z,10.93
2022-12-12T00:51:12.417Z,12.00
2022-12-12T00:53:40.864Z,12.23
2022-12-12T00:56:08.552Z,11.07
2022-12-12T00:58:36.794Z,10.13
2022-12-12T01:01:10.911Z,13.47
2022-12-12T01:03:40.867Z,13.17
2022-12-12T01:06:11.363Z,10.83
2022-12-12T01:08:39.865Z,10.20
2022-12-12T01:11:11.111Z,14.30
2022-12-12T01:13:39.038Z,9.10
2022-12-12T01:16:09.188Z,11.53
2022-12-12T01:18:37.868Z,12.50
2022-12-12T01:21:10.652Z,10.77
2022-12-12T01:23:39.198Z,15.77
2022-12-12T01:26:10.055Z,11.07
2022-12-12T01:28:38.302Z,11.47
2022-12-12T01:31:07.483Z,11.70
2022-12-12T01:33:35.416Z,10.07
2022-12-12T01:36:03.907Z,9.23
2022-12-12T01:38:32.975Z,11.93
2022-12-12T01:41:01.364Z,11.47
2022-12-12T01:43:30.012Z,12.17
2022-12-12T01:46:39.932Z,10.57
2022-12-12T01:49:14.223Z,9.87
2022-12-12T01:51:44.445Z,8.37
2022-12-12T01:54:17.984Z,10.17
2022-12-12T01:56:49.232Z,13.10
2022-12-12T01:59:20.128Z,11.27
2022-12-12T02:01:49.644Z,9.83
2022-12-12T02:04:18.789Z,9.60
2022-12-12T02:06:47.267Z,12.10
2022-12-12T02:09:18.080Z,21.63
2022-12-12T02:11:47.963Z,10.83
2022-12-12T02:14:19.672Z,9.97
2022-12-12T02:17:30.549Z,15.93
2022-12-12T02:20:42.796Z,10.60
2022-12-12T02:23:51.784Z,9.37
2022-12-12T02:26:48.053Z,11.00
2022-12-12T02:29:50.929Z,10.27
2022-12-12T02:32:26.437Z,12.37
2022-12-12T02:35:02.141Z,13.47
2022-12-12T02:37:38.388Z,10.00
2022-12-12T02:40:14.659Z,9.77
2022-12-12T02:42:48.162Z,9.57
2022-12-12T02:45:21.339Z,10.03
2022-12-12T02:47:55.700Z,13.13
2022-12-12T02:50:26.832Z,15.00
2022-12-12T02:52:54.604Z,12.90
2022-12-12T02:55:22.815Z,10.53
2022-12-12T02:57:52.994Z,9.27
2022-12-12T03:00:21.897Z,12.40
2022-12-12T03:03:33.488Z,13.03
2022-12-12T03:06:39.351Z,13.43
2022-12-12T03:09:17.093Z,9.47
2022-12-12T03:12:03.017Z,14.40
2022-12-12T03:14:46.198Z,10.93
2022-12-12T03:17:21.925Z,12.00
2022-12-12T03:20:00.452Z,11.77
2022-12-12T03:22:37.757Z,11.93
2022-12-12T03:25:11.073Z,11.80
2022-12-12T03:27:45.998Z,9.30
2022-12-12T03:30:16.483Z,8.63
2022-12-12T03:32:51.884Z,8.57
2022-12-12T03:35:27.485Z,9.30
2022-12-12T03:38:00.606Z,8.47
2022-12-12T03:40:33.432Z,9.00
2022-12-12T03:43:07.130Z,10.67
2022-12-12T03:45:39.341Z,11.30
2022-12-12T03:48:14.602Z,9.57
2022-12-12T03:50:47.171Z,10.83
2022-12-12T03:53:20.763Z,10.37
2022-12-12T03:55:54.717Z,9.80
2022-12-12T03:58:28.735Z,9.47
2022-12-12T04:00:59.266Z,9.73
2022-12-12T04:03:34.295Z,13.77
2022-12-12T04:06:28.546Z,7.20
2022-12-12T04:09:17.449Z,9.30
2022-12-12T04:12:15.452Z,8.50
2022-12-12T04:15:04.889Z,7.03
2022-12-12T04:17:39.973Z,6.57
2022-12-12T04:20:34.719Z,8.00
2022-12-12T04:23:17.789Z,9.43
2022-12-12T04:26:15.300Z,6.63
2022-12-12T04:28:52.523Z,9.27
2022-12-12T04:31:25.392Z,7.13
2022-12-12T04:34:02.960Z,9.57
2022-12-12T04:36:34.368Z,6.43
2022-12-12T04:39:06.688Z,8.57
2022-12-12T04:41:37.703Z,10.23
2022-12-12T04:44:10.698Z,6.90
2022-12-12T04:46:41.380Z,8.60
2022-12-12T04:49:15.181Z,9.53
2022-12-12T04:51:46.917Z,8.03
2022-12-12T04:54:22.907Z,7.80
2022-12-12T04:56:55.403Z,8.43
2022-12-12T04:59:23.928Z,12.50
2022-12-12T05:01:59.144Z,10.87
2022-12-12T05:04:32.198Z,7.53
2022-12-12T05:07:05.852Z,6.60
2022-12-12T05:09:36.240Z,11.13
2022-12-12T05:12:04.264Z,6.87
2022-12-12T05:14:32.788Z,6.57
2022-12-12T05:17:06.606Z,9.77
2022-12-12T05:19:35.538Z,5.97
2022-12-12T05:22:03.170Z,5.83
2022-12-12T05:24:32.275Z,7.93
2022-12-12T05:27:02.369Z,6.77
2022-12-12T05:29:32.212Z,5.93
2022-12-12T05:31:59.970Z,7.03
2022-12-12T05:34:27.650Z,6.53
2022-12-12T05:36:55.326Z,9.77
2022-12-12T05:39:23.375Z,7.03
2022-12-12T05:41:52.600Z,8.97
2022-12-12T05:44:22.475Z,7.13
2022-12-12T05:46:50.117Z,6.17
2022-12-12T05:49:17.899Z,11.67
2022-12-12T05:51:46.231Z,7.13
2022-12-12T05:54:14.751Z,5.77
2022-12-12T05:56:42.421Z,8.60
2022-12-12T05:59:10.415Z,8.27
2022-12-12T06:01:39.409Z,8.93
2022-12-12T06:04:07.673Z,6.27
2022-12-12T06:06:35.475Z,6.30
2022-12-12T06:09:03.296Z,6.90
2022-12-12T06:11:30.939Z,6.40
2022-12-12T06:13:59.151Z,7.70
2022-12-12T06:16:27.014Z,8.13
2022-12-12T06:18:56.948Z,7.63
2022-12-12T06:21:24.731Z,7.10
2022-12-12T06:23:52.460Z,8.93
2022-12-12T06:26:21.545Z,6.93
2022-12-12T06:28:49.811Z,7.37
2022-12-12T06:31:18.127Z,10.97
2022-12-12T06:33:46.015Z,9.57
2022-12-12T06:36:23.613Z,19.17
2022-12-12T06:38:51.700Z,9.17
2022-12-12T06:41:20.068Z,10.60
2022-12-12T06:43:47.935Z,9.80
2022-12-12T06:46:17.647Z,12.73
2022-12-12T06:48:46.458Z,8.80
2022-12-12T06:51:20.200Z,7.93
2022-12-12T06:53:48.280Z,6.67
2022-12-12T06:56:18.379Z,8.93
2022-12-12T06:58:46.140Z,9.53
2022-12-12T07:01:15.655Z,7.63
2022-12-12T07:03:43.314Z,6.33
2022-12-12T07:06:12.039Z,8.30
2022-12-12T07:08:41.579Z,8.00
2022-12-12T07:11:13.124Z,7.20
2022-12-12T07:13:41.448Z,6.27
2022-12-12T07:16:10.358Z,9.73
2022-12-12T07:18:38.282Z,16.47
2022-12-12T07:21:09.099Z,9.80
2022-12-12T07:23:37.223Z,7.57
2022-12-12T07:26:09.289Z,7.00
2022-12-12T07:28:38.094Z,6.97
2022-12-12T07:31:08.164Z,7.27
2022-12-12T07:33:43.459Z,12.13
2022-12-12T07:36:12.541Z,5.80
2022-12-12T07:38:40.183Z,7.67
2022-12-12T07:41:11.696Z,7.23
2022-12-12T07:43:43.662Z,7.57
2022-12-12T07:46:16.078Z,5.67
2022-12-12T07:48:43.921Z,8.70
2022-12-12T07:51:12.072Z,7.10
2022-12-12T07:53:39.710Z,9.47
2022-12-12T07:56:08.776Z,8.23
2022-12-12T07:58:38.269Z,11.17
2022-12-12T08:01:14.314Z,8.97
2022-12-12T08:03:42.899Z,10.50
2022-12-12T08:06:11.472Z,7.37
2022-12-12T08:08:39.237Z,10.57
2022-12-12T08:11:08.460Z,7.63
2022-12-12T08:13:39.460Z,9.17
2022-12-12T08:16:13.091Z,5.47
2022-12-12T08:18:40.795Z,6.60
2022-12-12T08:21:09.641Z,8.70
2022-12-12T08:23:37.396Z,8.10
2022-12-12T08:26:09.727Z,5.10
2022-12-12T08:28:41.241Z,5.90
2022-12-12T08:31:09.583Z,6.30
2022-12-12T08:33:37.280Z,8.87
2022-12-12T08:36:13.327Z,8.67
2022-12-12T08:38:40.974Z,9.13
2022-12-12T08:41:10.155Z,8.80
2022-12-12T08:43:40.483Z,8.10
2022-12-12T08:46:13.850Z,7.67
2022-12-12T08:48:45.784Z,9.10
2022-12-12T08:51:14.353Z,7.03
2022-12-12T08:53:44.888Z,8.07
2022-12-12T08:56:13.071Z,6.60
2022-12-12T08:58:42.209Z,7.00
2022-12-12T09:01:14.270Z,5.70
2022-12-12T09:03:42.142Z,4.17
2022-12-12T09:06:11.520Z,4.93
2022-12-12T09:08:39.755Z,6.03
2022-12-12T09:11:08.100Z,4.13
2022-12-12T09:13:35.896Z,5.10
2022-12-12T09:16:06.344Z,6.00
2022-12-12T09:18:34.454Z,5.10
2022-12-12T09:21:02.525Z,4.50
2022-12-12T09:23:30.355Z,4.03
2022-12-12T09:25:58.944Z,3.70
2022-12-12T09:28:27.816Z,4.63
2022-12-12T09:30:55.760Z,6.50
2022-12-12T09:33:24.777Z,3.40
2022-12-12T09:35:58.660Z,5.07
2022-12-12T09:38:27.488Z,4.00
2022-12-12T09:41:00.257Z,5.60
2022-12-12T09:43:33.533Z,7.63
2022-12-12T09:46:03.809Z,4.43
2022-12-12T09:48:41.989Z,4.37
2022-12-12T09:51:11.208Z,5.73
2022-12-12T09:53:41.116Z,4.00
2022-12-12T09:56:16.359Z,6.10
2022-12-12T09:58:55.364Z,5.17
2022-12-12T10:01:31.165Z,3.70
2022-12-12T10:04:12.817Z,4.90
2022-12-12T10:06:46.525Z,7.93
2022-12-12T10:09:33.313Z,6.80
2022-12-12T10:12:08.390Z,4.70
2022-12-12T10:14:41.818Z,4.50
2022-12-12T10:17:13.283Z,6.30
2022-12-12T10:19:48.968Z,5.77
2022-12-12T10:22:26.620Z,8.33
2022-12-12T10:24:59.441Z,4.90
2022-12-12T10:27:27.102Z,4.20
2022-12-12T10:29:56.701Z,6.23
2022-12-12T10:32:36.144Z,5.00
2022-12-12T10:35:22.711Z,6.33
2022-12-12T10:38:03.592Z,4.30
2022-12-12T10:40:45.389Z,5.70
2022-12-12T10:43:22.573Z,6.20
2022-12-12T10:46:16.231Z,5.07
2022-12-12T10:48:45.669Z,4.13
2022-12-12T10:51:18.700Z,4.07
2022-12-12T10:53:47.911Z,3.60
2022-12-12T10:56:21.495Z,4.57
2022-12-12T10:58:54.343Z,6.17
2022-12-12T11:01:52.296Z,3.80
2022-12-12T11:04:15.212Z,5.17
2022-12-12T11:06:48.070Z,5.13
2022-12-12T11:09:20.303Z,4.03
2022-12-12T11:11:59.122Z,3.70
2022-12-12T11:14:32.624Z,3.90
2022-12-12T11:17:00.359Z,4.20
2022-12-12T11:19:29.201Z,4.10
2022-12-12T11:22:05.288Z,5.73
2022-12-12T11:24:36.164Z,4.13
2022-12-12T11:27:06.261Z,5.50
2022-12-12T11:29:42.913Z,4.77
2022-12-12T11:32:14.240Z,4.77
2022-12-12T11:34:47.379Z,4.80
2022-12-12T11:37:18.233Z,3.93
2022-12-12T11:39:47.856Z,3.60
2022-12-12T11:42:21.910Z,4.30
2022-12-12T11:45:00.026Z,17.73
2022-12-12T11:47:29.916Z,5.80
2022-12-12T11:49:59.822Z,4.67
2022-12-12T11:52:32.224Z,3.90
2022-12-12T11:55:01.600Z,2.87
2022-12-12T11:57:49.536Z,3.47
2022-12-12T12:00:20.808Z,3.13
2022-12-12T12:06:10.104Z,3.13
2022-12-12T12:08:59.138Z,2.90
2022-12-12T12:11:33.260Z,3.63
2022-12-12T12:14:13.788Z,3.83
2022-12-12T12:16:53.090Z,3.03
2022-12-12T12:19:28.715Z,3.37
2022-12-12T12:22:03.462Z,3.57
2022-12-12T12:24:56.781Z,3.77
2022-12-12T12:27:34.046Z,5.03
2022-12-12T12:30:14.724Z,4.33
2022-12-12T12:32:58.884Z,5.10
2022-12-12T12:35:30.924Z,3.50
2022-12-12T12:38:14.486Z,3.00
2022-12-12T12:41:09.662Z,3.53
2022-12-12T12:43:52.448Z,3.80
2022-12-12T12:46:32.149Z,4.07
2022-12-12T12:49:04.609Z,4.73
2022-12-12T12:51:36.759Z,4.23
2022-12-12T12:54:07.471Z,6.50
2022-12-12T12:56:43.995Z,4.00
2022-12-12T12:59:18.091Z,2.40
2022-12-12T13:01:49.377Z,3.20
2022-12-12T13:04:25.574Z,3.23
2022-12-12T13:06:57.515Z,6.77
2022-12-12T13:09:33.498Z,5.77
2022-12-12T13:12:10.165Z,9.80
2022-12-12T13:14:47.487Z,5.20
2022-12-12T13:17:19.962Z,6.53
2022-12-12T13:19:53.753Z,6.87
2022-12-12T13:22:31.577Z,6.20
2022-12-12T13:25:07.237Z,3.80
2022-12-12T13:27:45.616Z,4.70
2022-12-12T13:30:23.416Z,5.33
2022-12-12T13:33:06.436Z,4.57
2022-12-12T13:35:40.105Z,9.07
2022-12-12T13:38:19.088Z,4.47
2022-12-12T13:40:57.459Z,5.33
2022-12-12T13:43:40.307Z,4.40
2022-12-12T13:46:42.408Z,10.53
2022-12-12T13:49:31.246Z,4.13
2022-12-12T13:52:23.898Z,3.87
2022-12-12T13:54:53.937Z,5.10
2022-12-12T13:57:32.141Z,4.47
2022-12-12T14:00:21.418Z,4.03
2022-12-12T14:03:03.112Z,3.83
2022-12-12T14:05:35.520Z,9.87
2022-12-12T14:08:08.975Z,5.23
2022-12-12T14:10:40.444Z,5.03
2022-12-12T14:13:18.592Z,8.20
2022-12-12T14:15:51.380Z,5.87
2022-12-12T14:18:25.871Z,4.30
2022-12-12T14:21:03.054Z,3.27
2022-12-12T14:23:32.636Z,4.43
2022-12-12T14:26:01.504Z,7.33
2022-12-12T14:28:31.104Z,2.87
2022-12-12T14:31:09.123Z,4.57
2022-12-12T14:34:06.206Z,3.67
2022-12-12T14:36:52.285Z,4.57
2022-12-12T14:39:34.857Z,3.23
2022-12-12T14:42:07.005Z,3.10
2022-12-12T14:44:37.421Z,3.27
2022-12-12T14:47:09.686Z,3.80
2022-12-12T14:49:37.450Z,4.87
2022-12-12T14:52:05.680Z,2.27
2022-12-12T14:54:33.432Z,3.40
2022-12-12T14:57:01.942Z,5.53
2022-12-12T14:59:33.469Z,9.30
2022-12-12T15:02:07.070Z,3.40
2022-12-12T15:04:39.619Z,6.20
2022-12-12T15:07:22.660Z,3.93
2022-12-12T15:09:50.592Z,3.57
2022-12-12T15:12:21.046Z,4.20
2022-12-12T15:14:55.102Z,6.73
2022-12-12T15:17:27.288Z,12.67
2022-12-12T15:19:59.456Z,5.03
2022-12-12T15:22:29.835Z,6.87
2022-12-12T15:24:59.470Z,4.57
2022-12-12T15:27:32.164Z,4.30
2022-12-12T15:30:01.509Z,4.10
2022-12-12T15:32:30.709Z,7.63
2022-12-12T15:35:05.891Z,5.50
2022-12-12T15:37:35.145Z,5.40
2022-12-12T15:40:22.594Z,6.03
2022-12-12T15:42:55.567Z,6.00
2022-12-12T15:45:26.678Z,6.30
2022-12-12T15:47:56.869Z,5.20
2022-12-12T15:50:28.584Z,8.40
2022-12-12T15:53:03.195Z,6.13
2022-12-12T15:55:31.032Z,6.63
2022-12-12T15:57:59.155Z,5.47
2022-12-12T16:00:35.184Z,9.07
2022-12-12T16:03:06.461Z,5.70
2022-12-12T16:05:37.743Z,10.97
2022-12-12T16:08:32.053Z,13.27
2022-12-12T16:11:02.383Z,4.90
2022-12-12T16:13:37.795Z,3.33
2022-12-12T16:16:36.020Z,9.13
2022-12-12T16:19:05.276Z,8.90
2022-12-12T16:21:36.658Z,5.07
2022-12-12T16:24:13.275Z,5.17
2022-12-12T16:26:40.915Z,4.23
2022-12-12T16:29:08.564Z,4.97
2022-12-12T16:34:22.535Z,6.27
2022-12-12T16:36:51.896Z,5.43
2022-12-12T16:39:19.637Z,7.60
2022-12-12T16:41:48.129Z,9.97
2022-12-12T16:44:15.763Z,9.03
2022-12-12T16:46:43.404Z,7.47
2022-12-12T16:49:15.257Z,4.47
2022-12-12T16:51:43.691Z,4.60
2022-12-12T16:54:17.716Z,3.90
2022-12-12T16:56:52.559Z,3.60
2022-12-12T16:59:20.260Z,5.10
2022-12-12T17:01:48.961Z,4.40
2022-12-12T17:04:22.215Z,5.97
2022-12-12T17:06:51.096Z,12.23
2022-12-12T17:09:21.505Z,4.57
2022-12-12T17:11:51.660Z,9.03
2022-12-12T17:14:22.649Z,5.40
2022-12-12T17:16:51.393Z,6.27
2022-12-12T17:19:20.621Z,3.47
2022-12-12T17:21:48.988Z,6.00
2022-12-12T17:24:16.796Z,5.87
2022-12-12T17:26:46.119Z,5.33
2022-12-12T17:29:14.187Z,6.97
2022-12-12T17:31:41.893Z,8.77
2022-12-12T17:34:11.470Z,20.87
2022-12-12T17:36:39.347Z,65.63
2022-12-12T17:39:07.774Z,78.33
2022-12-12T17:41:35.703Z,51.83
2022-12-12T17:44:05.506Z,33.20
2022-12-12T17:46:33.193Z,27.27
2022-12-12T17:49:02.004Z,24.60
2022-12-12T17:51:30.083Z,18.70
2022-12-12T17:54:00.251Z,18.13
2022-12-12T17:56:28.377Z,24.50
2022-12-12T17:58:56.971Z,12.90
2022-12-12T18:01:28.313Z,14.27
2022-12-12T18:03:57.549Z,17.23
2022-12-12T18:06:27.029Z,15.93
2022-12-12T18:08:55.858Z,16.87
2022-12-12T18:11:26.857Z,12.27
2022-12-12T18:13:57.964Z,11.10
2022-12-12T18:16:29.179Z,12.47
2022-12-12T18:18:57.851Z,15.77
2022-12-12T18:21:59.085Z,13.50
2022-12-12T18:24:17.616Z,17.40
2022-12-12T18:26:45.468Z,11.60
2022-12-12T18:29:14.529Z,13.47
2022-12-12T18:31:43.606Z,10.40
2022-12-12T18:34:11.649Z,8.60
2022-12-12T18:36:39.941Z,10.03
2022-12-12T18:39:08.662Z,8.50
2022-12-12T18:41:37.505Z,8.60
2022-12-12T18:44:07.188Z,7.60
2022-12-12T18:46:40.543Z,8.80
2022-12-12T18:49:15.271Z,19.93
2022-12-12T18:51:44.275Z,8.73
2022-12-12T18:54:15.541Z,10.30
2022-12-12T18:56:45.078Z,8.47
2022-12-12T18:59:13.345Z,10.43
2022-12-12T19:01:41.122Z,14.27
2022-12-12T19:04:13.113Z,8.40
2022-12-12T19:06:44.465Z,13.50
2022-12-12T19:09:15.603Z,8.83
2022-12-12T19:11:44.236Z,8.63
2022-12-12T19:14:15.226Z,6.67
2022-12-12T19:16:43.768Z,6.03
2022-12-12T19:19:12.197Z,8.20
2022-12-12T19:21:42.039Z,11.13
2022-12-12T19:24:12.671Z,10.50
2022-12-12T19:26:43.714Z,7.73
2022-12-12T19:29:13.900Z,5.83
2022-12-12T19:31:42.515Z,7.20
2022-12-12T19:34:12.810Z,8.50
2022-12-12T19:36:41.465Z,10.90
2022-12-12T19:39:13.968Z,16.33
2022-12-12T19:41:42.427Z,17.47
2022-12-12T19:44:12.858Z,24.43
2022-12-12T19:46:43.078Z,20.33
2022-12-12T19:49:12.722Z,23.03
2022-12-12T19:51:43.159Z,20.63
2022-12-12T19:54:14.649Z,16.73
2022-12-12T19:56:42.415Z,10.47
2022-12-12T19:59:13.017Z,15.07
2022-12-12T20:01:41.418Z,12.30
2022-12-12T20:04:14.519Z,14.90
2022-12-12T20:06:45.698Z,16.93
2022-12-12T20:09:17.026Z,49.53
2022-12-12T20:11:45.813Z,20.30
2022-12-12T20:14:15.312Z,20.17
2022-12-12T20:16:43.463Z,17.03
2022-12-12T20:19:11.852Z,19.00
2022-12-12T20:24:34.496Z,14.53
2022-12-12T20:27:04.390Z,9.97
2022-12-12T20:29:32.332Z,9.70
2022-12-12T20:32:01.586Z,9.90
2022-12-12T20:34:29.676Z,9.07
2022-12-12T20:36:58.967Z,8.20
2022-12-12T20:39:26.763Z,7.83
2022-12-12T20:41:56.934Z,13.73
2022-12-12T20:44:25.759Z,12.90
2022-12-12T20:46:53.722Z,22.87
2022-12-12T20:49:23.876Z,14.63
2022-12-12T20:51:56.969Z,12.30
2022-12-12T20:54:25.988Z,9.23
2022-12-12T20:56:54.260Z,6.27
2022-12-12T20:59:23.848Z,5.43
2022-12-12T21:01:52.409Z,4.07
2022-12-12T21:04:20.186Z,5.57
2022-12-12T21:06:49.605Z,6.30
2022-12-12T21:09:23.675Z,6.23
2022-12-12T21:11:53.058Z,4.67
2022-12-12T21:14:20.787Z,3.23
2022-12-12T21:16:49.795Z,3.70
2022-12-12T21:19:18.750Z,3.50
2022-12-12T21:21:46.923Z,4.37
2022-12-12T21:24:17.842Z,8.30
2022-12-12T21:26:46.059Z,5.07
2022-12-12T21:29:13.879Z,5.43
2022-12-12T21:31:49.950Z,4.93
2022-12-12T21:34:21.003Z,6.53
2022-12-12T21:36:51.481Z,11.30
2022-12-12T21:39:19.227Z,8.73
2022-12-12T21:41:47.026Z,8.13
2022-12-12T21:44:14.673Z,7.00
2022-12-12T21:46:44.019Z,9.50
2022-12-12T21:49:26.298Z,9.27
2022-12-12T21:51:57.472Z,8.97
2022-12-12T21:54:26.013Z,12.83
2022-12-12T21:56:54.432Z,14.77
2022-12-12T21:59:22.419Z,13.17
2022-12-12T22:01:50.139Z,13.93
2022-12-12T22:04:17.802Z,10.73
2022-12-12T22:06:46.708Z,8.90
2022-12-12T22:09:15.727Z,12.07
2022-12-12T22:11:49.842Z,11.27
2022-12-12T22:14:20.876Z,17.47
2022-12-12T22:16:48.880Z,15.07
2022-12-12T22:19:17.172Z,9.40
2022-12-12T22:21:46.442Z,9.53
2022-12-12T22:24:15.740Z,11.67
2022-12-12T22:26:45.076Z,11.93
2022-12-12T22:29:15.850Z,11.30
2022-12-12T22:31:44.768Z,14.53
2022-12-12T22:34:14.612Z,13.30
2022-12-12T22:36:43.107Z,10.93
2022-12-12T22:39:16.499Z,9.53
2022-12-12T22:41:44.623Z,8.10
2022-12-12T22:44:15.799Z,9.43
2022-12-12T22:46:44.651Z,6.97
2022-12-12T22:49:14.236Z,15.27
2022-12-12T22:51:42.313Z,15.43
2022-12-12T22:54:10.236Z,17.70
2022-12-12T22:56:40.433Z,17.07
2022-12-12T22:59:09.817Z,20.67
2022-12-12T23:01:37.476Z,20.07
2022-12-12T23:04:06.207Z,20.63
2022-12-12T23:06:36.610Z,12.13
2022-12-12T23:09:08.264Z,8.80
2022-12-12T23:11:36.841Z,10.37
2022-12-12T23:14:08.512Z,8.67
2022-12-12T23:16:37.451Z,7.00
2022-12-12T23:19:07.803Z,8.47
2022-12-12T23:21:37.529Z,7.37
2022-12-12T23:24:07.477Z,9.07
2022-12-12T23:26:37.369Z,7.87
2022-12-12T23:29:09.458Z,7.23
2022-12-12T23:31:39.159Z,9.73
2022-12-12T23:34:13.903Z,12.93
2022-12-12T23:36:42.193Z,9.33
2022-12-12T23:39:12.475Z,10.77
2022-12-12T23:41:40.865Z,13.70
2022-12-12T23:44:13.337Z,10.73
2022-12-12T23:46:41.556Z,11.23
2022-12-12T23:49:14.539Z,12.43
2022-12-12T23:51:43.985Z,13.00
2022-12-12T23:54:14.851Z,10.93
2022-12-12T23:56:43.187Z,11.57
2022-12-12T23:59:17.531Z,12.40
